Time;durP1;ratioP1;P1;durP2;ratioP2;P2;SDS_P1;SDS_P2;PMS_P1;PMS_P2;Temp;Humidity;BMP_temperature;BMP_pressure;BME280_temperature;BME280_humidity;BME280_pressure;Samples;Min_cycle;Max_cycle;Signal;HPM_P1;HPM_P2
2021/04/09 00:01:56;;;;;;;4.10;2.78;;;;;;;3.65;46.59;99909.44;6249641;23;19996;-76
2021/04/09 00:04:22;;;;;;;3.75;2.00;;;;;;;3.68;46.41;99925.69;6250744;23;19996;-77
2021/04/09 00:06:48;;;;;;;2.35;2.13;;;;;;;3.67;47.03;99917.97;6249887;23;20011;-77
2021/04/09 00:09:14;;;;;;;2.85;2.10;;;;;;;3.70;46.77;99930.81;6249988;23;20081;-77
2021/04/09 00:11:41;;;;;;;3.83;2.30;;;;;;;3.73;46.35;99930.38;6255266;23;20336;-78
2021/04/09 00:14:09;;;;;;;4.03;2.08;;;;;;;3.72;47.10;99928.75;6256496;23;20004;-77
2021/04/09 00:16:35;;;;;;;5.90;2.00;;;;;;;3.74;46.88;99933.84;6254746;23;20026;-78
2021/04/09 00:19:01;;;;;;;2.25;1.90;;;;;;;3.73;46.55;99929.56;6232618;23;20239;-78
2021/04/09 00:21:27;;;;;;;3.03;2.60;;;;;;;3.75;46.77;99923.03;6229256;23;20050;-77
2021/04/09 00:23:53;;;;;;;2.42;2.20;;;;;;;3.75;46.80;99936.28;6256580;23;20030;-78
2021/04/09 00:26:18;;;;;;;4.07;1.83;;;;;;;3.74;46.97;99932.00;6257503;23;20008;-77
2021/04/09 00:28:44;;;;;;;3.97;2.58;;;;;;;3.73;47.07;99922.44;6254973;23;20004;-77
2021/04/09 00:31:10;;;;;;;6.10;2.78;;;;;;;3.76;47.35;99929.13;6258194;23;20011;-78
2021/04/09 00:33:35;;;;;;;5.75;2.45;;;;;;;3.72;47.20;99920.81;6258368;23;20000;-78
2021/04/09 00:36:01;;;;;;;4.05;2.05;;;;;;;3.70;46.68;99922.88;6230653;23;20083;-77
2021/04/09 00:38:26;;;;;;;5.40;2.00;;;;;;;3.71;46.96;99928.97;6257830;23;20008;-79
2021/04/09 00:40:52;;;;;;;3.72;2.22;;;;;;;3.70;46.38;99922.88;6257710;23;20011;-80
2021/04/09 00:43:18;;;;;;;7.65;2.85;;;;;;;3.69;46.71;99929.97;6232696;23;20004;-79
2021/04/09 00:45:44;;;;;;;3.88;2.50;;;;;;;3.71;47.44;99918.38;6253759;23;20091;-77
2021/04/09 00:48:10;;;;;;;4.03;2.28;;;;;;;3.68;47.18;99923.06;6226775;23;20073;-77
2021/04/09 00:50:37;;;;;;;4.20;2.13;;;;;;;3.61;47.55;99927.53;6228505;23;19996;-78
2021/04/09 00:53:06;;;;;;;3.00;2.17;;;;;;;3.61;47.70;99930.19;6222675;23;20040;-75
2021/04/09 00:55:32;;;;;;;3.17;2.22;;;;;;;3.61;47.83;99924.91;6251843;23;19996;-77
2021/04/09 00:57:59;;;;;;;4.47;2.45;;;;;;;3.60;47.50;99933.88;6248497;23;20469;-76
2021/04/09 01:00:26;;;;;;;4.70;2.35;;;;;;;3.59;47.97;99936.72;6244899;23;19997;-76
2021/04/09 01:02:52;;;;;;;5.10;2.20;;;;;;;3.58;47.76;99933.28;6247106;23;20437;-76
2021/04/09 01:05:19;;;;;;;4.78;2.28;;;;;;;3.56;47.78;99931.84;6243712;23;20011;-77
2021/04/09 01:07:45;;;;;;;2.92;1.95;;;;;;;3.58;47.58;99935.13;6245570;23;20006;-76
2021/04/09 01:10:13;;;;;;;4.20;2.20;;;;;;;3.56;47.66;99929.22;6220728;23;20005;-77
2021/04/09 01:12:39;;;;;;;4.68;2.95;;;;;;;3.56;47.57;99942.44;6247157;23;20007;-77
2021/04/09 01:15:06;;;;;;;3.78;2.20;;;;;;;3.53;47.67;99936.53;6248826;23;20000;-76
2021/04/09 01:17:41;;;;;;;3.10;2.45;;;;;;;3.52;47.80;99939.41;6245467;23;20002;-75
2021/04/09 01:20:33;;;;;;;3.35;1.80;;;;;;;3.49;47.59;99940.63;6247519;23;20413;-77
2021/04/09 01:23:08;;;;;;;2.45;2.08;;;;;;;3.47;47.26;99940.00;6202926;23;20001;-76
2021/04/09 01:25:36;;;;;;;4.57;2.38;;;;;;;3.46;47.06;99937.56;6247238;23;20012;-76
2021/04/09 01:28:20;;;;;;;3.13;2.03;;;;;;;3.42;47.47;99931.88;6249771;23;20067;-76
2021/04/09 01:31:18;;;;;;;5.35;2.47;;;;;;;3.45;46.72;99936.75;6251878;23;20033;-76
2021/04/09 01:33:48;;;;;;;4.45;2.20;;;;;;;3.43;46.96;99941.44;6249941;23;20000;-75
2021/04/09 01:36:24;;;;;;;3.45;2.40;;;;;;;3.42;47.10;99941.63;6253174;23;20003;-77
2021/04/09 01:39:10;;;;;;;3.28;1.98;;;;;;;3.41;47.20;99940.03;6253370;23;20007;-76
2021/04/09 01:41:41;;;;;;;4.10;2.97;;;;;;;3.41;47.07;99940.03;6229311;23;20067;-77
2021/04/09 01:44:10;;;;;;;2.55;2.03;;;;;;;3.41;47.17;99950.63;6247501;23;20011;-75
2021/04/09 01:46:40;;;;;;;3.38;2.30;;;;;;;3.43;47.55;99943.25;6256743;23;20008;-78
2021/04/09 01:49:07;;;;;;;2.92;1.88;;;;;;;3.38;47.67;99941.22;6253797;23;20069;-76
2021/04/09 01:51:33;;;;;;;2.53;1.90;;;;;;;3.39;47.30;99953.44;6252135;23;20047;-77
2021/04/09 01:54:00;;;;;;;4.20;2.28;;;;;;;3.39;47.25;99955.28;6246403;23;20007;-76
2021/04/09 01:56:26;;;;;;;4.22;1.88;;;;;;;3.35;47.23;99949.59;6252336;23;20079;-77
2021/04/09 01:58:54;;;;;;;2.95;1.83;;;;;;;3.35;47.27;99953.03;6248206;23;20000;-76
2021/04/09 02:01:20;;;;;;;2.47;2.08;;;;;;;3.39;47.22;99960.56;6251419;23;20007;-77
2021/04/09 02:03:49;;;;;;;2.15;1.95;;;;;;;3.37;47.23;99955.50;6253005;23;20004;-77
2021/04/09 02:06:18;;;;;;;3.75;1.58;;;;;;;3.36;47.63;99959.16;6251994;23;20030;-78
2021/04/09 02:08:45;;;;;;;3.65;2.08;;;;;;;3.36;47.58;99953.88;6230759;23;20003;-77
2021/04/09 02:11:11;;;;;;;5.90;2.30;;;;;;;3.33;47.28;99951.63;6221590;23;19996;-76
2021/04/09 02:13:38;;;;;;;4.47;2.38;;;;;;;3.32;47.36;99957.91;6254947;23;20034;-76
2021/04/09 02:16:05;;;;;;;2.72;1.77;;;;;;;3.30;47.98;99958.13;6254927;23;20015;-76
2021/04/09 02:18:31;;;;;;;3.40;2.00;;;;;;;3.28;47.81;99956.72;6254036;23;20333;-76
2021/04/09 02:21:01;;;;;;;3.05;2.65;;;;;;;3.25;47.92;99959.75;6255795;23;20003;-76
2021/04/09 02:23:27;;;;;;;3.20;2.30;;;;;;;3.18;47.51;99962.41;6224948;23;20034;-76
2021/04/09 02:26:00;;;;;;;2.35;2.13;;;;;;;3.19;48.45;99964.06;6247161;23;20046;-75
2021/04/09 02:28:28;;;;;;;5.43;2.20;;;;;;;3.16;48.09;99961.81;6245112;23;20000;-75
2021/04/09 02:31:05;;;;;;;5.13;2.53;;;;;;;3.13;47.97;99968.31;6244079;23;20000;-75
2021/04/09 02:33:34;;;;;;;3.97;2.63;;;;;;;3.13;47.90;99963.03;6244642;23;19996;-74
2021/04/09 02:36:08;;;;;;;2.20;1.98;;;;;;;3.10;48.20;99966.09;6244246;23;20375;-74
2021/04/09 02:38:34;;;;;;;3.13;2.05;;;;;;;3.06;48.31;99969.34;6243085;23;20004;-74
2021/04/09 02:41:02;;;;;;;3.58;2.65;;;;;;;3.03;48.16;99967.94;6243564;23;19999;-74
2021/04/09 02:43:29;;;;;;;3.58;2.50;;;;;;;2.99;48.05;99964.88;6244399;23;20000;-74
2021/04/09 02:45:58;;;;;;;3.15;2.38;;;;;;;2.94;48.68;99971.78;6244555;23;20000;-74
2021/04/09 02:48:32;;;;;;;2.72;2.33;;;;;;;2.90;48.47;99968.72;6254188;23;20000;-76
2021/04/09 02:51:05;;;;;;;6.40;2.97;;;;;;;2.85;48.78;99968.53;6246180;23;20031;-74
2021/04/09 02:53:34;;;;;;;2.95;2.60;;;;;;;2.86;49.13;99975.44;6251733;23;19996;-77
2021/04/09 02:56:03;;;;;;;4.30;2.78;;;;;;;2.82;48.86;99972.38;6255547;23;20004;-76
2021/04/09 02:58:29;;;;;;;;;;;;;;;2.82;48.73;99974.19;6251331;23;19996;-75
2021/04/09 03:00:55;;;;;;;4.13;2.38;;;;;;;2.78;49.09;99971.13;6244180;23;20287;-75
2021/04/09 03:03:22;;;;;;;4.43;3.17;;;;;;;2.79;49.04;99978.06;6243343;23;19996;-75
2021/04/09 03:05:50;;;;;;;13.00;5.53;;;;;;;2.78;49.21;99975.63;6251700;23;20368;-76
2021/04/09 03:08:17;;;;;;;4.00;3.40;;;;;;;2.78;49.49;99973.78;6255365;23;19996;-76
2021/04/09 03:10:43;;;;;;;2.63;2.25;;;;;;;2.78;48.99;99979.06;6249964;23;20003;-75
2021/04/09 03:13:08;;;;;;;3.90;2.70;;;;;;;2.78;49.56;99987.00;6246980;23;20000;-76
2021/04/09 03:15:42;;;;;;;3.20;1.85;;;;;;;2.76;49.52;99991.69;6244451;23;20011;-74
2021/04/09 03:18:12;;;;;;;5.78;2.80;;;;;;;2.74;49.91;99990.25;6216717;23;20084;-74
2021/04/09 03:20:38;;;;;;;2.53;2.30;;;;;;;2.72;49.28;99999.19;6243688;23;20114;-74
2021/04/09 03:23:05;;;;;;;4.97;2.22;;;;;;;2.71;49.73;100000.19;6247916;23;20575;-76
2021/04/09 03:25:32;;;;;;;6.07;3.38;;;;;;;2.69;49.95;100010.16;6250627;23;20056;-76
2021/04/09 03:27:57;;;;;;;3.25;2.63;;;;;;;2.66;49.64;100007.09;6218560;23;20464;-75
2021/04/09 03:30:26;;;;;;;5.78;2.90;;;;;;;2.64;50.10;100009.94;6243267;23;20011;-75
2021/04/09 03:32:51;;;;;;;4.75;2.90;;;;;;;2.61;50.35;100012.16;6246159;23;20008;-75
2021/04/09 03:35:17;;;;;;;4.10;3.13;;;;;;;2.58;50.68;100012.56;6242225;23;20000;-75
2021/04/09 03:37:43;;;;;;;5.00;3.35;;;;;;;2.51;51.11;100018.63;6243414;23;20476;-74
2021/04/09 03:40:10;;;;;;;5.03;2.65;;;;;;;2.48;50.75;100012.94;6225013;23;20051;-75
2021/04/09 03:42:36;;;;;;;3.92;2.53;;;;;;;2.45;51.12;100022.06;6248713;23;20058;-76
2021/04/09 03:45:04;;;;;;;2.85;2.50;;;;;;;2.39;50.86;100023.69;6246013;23;20409;-76
2021/04/09 03:47:30;;;;;;;6.22;4.25;;;;;;;2.40;50.98;100019.22;6249886;23;20004;-76
2021/04/09 03:49:55;;;;;;;4.65;2.97;;;;;;;2.36;51.30;100023.28;6245702;23;20047;-76
2021/04/09 03:52:21;;;;;;;4.95;3.28;;;;;;;2.40;51.34;100032.41;6243064;23;20007;-75
2021/04/09 03:54:46;;;;;;;8.15;3.80;;;;;;;2.43;51.35;100032.03;6248508;23;20063;-74
2021/04/09 03:57:12;;;;;;;4.82;3.13;;;;;;;2.52;51.14;100035.31;6248930;23;19996;-75
2021/04/09 03:59:37;;;;;;;7.75;3.97;;;;;;;2.63;51.54;100042.63;6249931;23;19996;-75
2021/04/09 04:02:03;;;;;;;4.88;3.15;;;;;;;2.83;51.44;100044.50;6246774;23;20134;-75
2021/04/09 04:04:28;;;;;;;5.50;3.42;;;;;;;3.02;50.64;100042.94;6246761;23;20024;-75
2021/04/09 04:06:54;;;;;;;5.97;2.70;;;;;;;3.24;50.35;100053.31;6247327;23;19996;-76
2021/04/09 04:09:19;;;;;;;3.08;2.30;;;;;;;3.47;49.46;100050.28;6246212;23;19999;-76
2021/04/09 04:11:45;;;;;;;4.32;3.38;;;;;;;3.76;48.58;100056.97;6248784;23;20004;-76
2021/04/09 04:14:11;;;;;;;7.65;4.13;;;;;;;4.05;48.27;100048.75;6245742;23;20008;-76
2021/04/09 04:16:37;;;;;;;11.05;3.50;;;;;;;4.32;47.18;100046.81;6245919;23;19996;-76
2021/04/09 04:19:03;;;;;;;5.18;3.53;;;;;;;4.62;46.52;100043.66;6246396;23;20008;-77
2021/04/09 04:21:28;;;;;;;3.67;2.70;;;;;;;5.00;47.67;100045.44;6254438;23;20409;-79
2021/04/09 04:23:54;;;;;;;4.93;3.35;;;;;;;5.38;45.78;100054.34;6232024;23;20030;-78
2021/04/09 04:26:19;;;;;;;5.85;2.97;;;;;;;5.72;43.82;100045.06;6245625;23;20047;-79
2021/04/09 04:28:45;;;;;;;5.78;3.45;;;;;;;5.88;42.59;100054.34;6248707;23;19992;-79
2021/04/09 04:35:18;;;;;;;8.15;3.35;;;;;;;6.81;41.45;100059.59;6250281;23;20015;-80
2021/04/09 04:42:12;;;;;;;8.73;4.28;;;;;;;7.99;39.91;100074.09;6067316;23;20107;-80
2021/04/09 04:55:20;;;;;;;6.13;3.60;;;;;;;9.68;35.90;100077.44;6009158;23;20040;-80
2021/04/09 04:57:46;;;;;;;5.93;3.10;;;;;;;9.93;35.63;100080.47;5981365;23;20075;-80
2021/04/09 05:00:12;;;;;;;4.72;3.10;;;;;;;10.22;34.60;100084.88;6005815;23;20035;-81
2021/04/09 05:02:38;;;;;;;4.70;3.15;;;;;;;10.43;33.93;100090.50;6046363;23;20063;-83
2021/04/09 05:05:05;;;;;;;9.02;2.90;;;;;;;10.58;33.75;100082.66;6143391;23;19996;-82
2021/04/09 05:07:31;;;;;;;5.03;2.80;;;;;;;10.70;33.11;100094.03;6179595;23;20468;-84
2021/04/09 05:09:57;;;;;;;4.68;2.90;;;;;;;10.85;32.75;100092.56;6179531;23;20001;-84
2021/04/09 05:12:22;;;;;;;5.38;3.00;;;;;;;11.02;32.93;100098.66;6221910;23;20507;-81
2021/04/09 05:14:50;;;;;;;3.83;3.28;;;;;;;11.30;32.79;100094.09;6241548;23;20008;-82
2021/04/09 05:17:15;;;;;;;4.87;3.33;;;;;;;11.62;32.43;100093.25;6241361;23;20004;-82
2021/04/09 05:19:41;;;;;;;7.43;4.28;;;;;;;11.94;32.23;100096.97;6241354;23;20027;-82
2021/04/09 05:22:06;;;;;;;3.47;2.90;;;;;;;12.24;31.68;100095.53;6215866;23;20000;-82
2021/04/09 05:24:32;;;;;;;3.72;2.60;;;;;;;12.46;30.22;100100.72;6241434;23;20012;-82
2021/04/09 05:26:57;;;;;;;7.10;2.85;;;;;;;12.52;30.28;100098.88;6241457;23;20023;-82
2021/04/09 05:29:22;;;;;;;3.58;3.00;;;;;;;12.68;29.96;100100.53;6241187;23;20004;-82
2021/04/09 05:31:48;;;;;;;3.53;2.50;;;;;;;12.87;30.11;100100.06;6217860;23;20101;-82
2021/04/09 05:34:13;;;;;;;3.10;2.40;;;;;;;12.98;29.73;100094.41;6243221;23;20062;-82
2021/04/09 05:36:39;;;;;;;3.67;2.80;;;;;;;12.98;29.72;100099.78;6243517;23;20015;-82
2021/04/09 05:39:04;;;;;;;3.92;2.58;;;;;;;12.95;29.11;100112.94;6218016;23;20008;-81
2021/04/09 05:41:30;;;;;;;2.65;2.22;;;;;;;12.88;29.32;100107.84;6242962;23;20087;-82
2021/04/09 05:43:55;;;;;;;3.20;2.53;;;;;;;12.85;29.85;100112.94;6218164;23;20003;-84
2021/04/09 05:46:21;;;;;;;2.75;2.50;;;;;;;12.91;29.02;100125.28;6243005;23;20003;-82
2021/04/09 05:48:46;;;;;;;5.45;3.03;;;;;;;12.88;30.03;100129.31;6242929;23;20004;-82
2021/04/09 05:51:12;;;;;;;4.47;2.63;;;;;;;13.03;30.27;100117.78;6242899;23;20344;-82
2021/04/09 05:53:39;;;;;;;4.25;3.17;;;;;;;13.13;29.65;100115.16;6243330;23;20410;-82
2021/04/09 05:56:04;;;;;;;4.72;3.83;;;;;;;13.25;29.65;100130.19;6243300;23;20415;-81
2021/04/09 05:58:30;;;;;;;4.47;2.80;;;;;;;13.34;29.69;100117.03;6217618;23;20008;-83
2021/04/09 06:00:55;;;;;;;3.95;3.45;;;;;;;13.26;28.14;100129.13;6243015;23;20409;-81
2021/04/09 06:03:21;;;;;;;4.10;2.95;;;;;;;13.18;29.20;100129.63;6242960;23;19996;-81
2021/04/09 06:05:46;;;;;;;3.65;2.70;;;;;;;13.02;29.39;100123.44;6217957;23;20004;-82
2021/04/09 06:08:12;;;;;;;3.80;2.58;;;;;;;12.96;28.96;100128.81;6242801;23;20010;-82
2021/04/09 06:10:38;;;;;;;5.55;3.33;;;;;;;12.84;29.13;100132.78;6243187;23;20000;-82
2021/04/09 06:13:04;;;;;;;3.72;2.75;;;;;;;12.80;29.64;100133.34;6243177;23;20435;-78
2021/04/09 06:15:30;;;;;;;6.28;3.00;;;;;;;12.79;29.34;100138.94;6217367;23;20011;-82
2021/04/09 06:17:56;;;;;;;5.53;2.53;;;;;;;12.69;30.45;100141.59;6243251;23;20028;-82
2021/04/09 06:20:21;;;;;;;3.33;2.60;;;;;;;12.58;29.90;100138.06;6242767;23;20008;-82
2021/04/09 06:22:47;;;;;;;6.65;4.32;;;;;;;12.52;29.75;100139.91;6243038;23;20053;-82
2021/04/09 06:25:14;;;;;;;7.95;4.15;;;;;;;12.30;29.93;100134.72;6242470;23;20542;-81
2021/04/09 06:27:40;;;;;;;7.13;3.70;;;;;;;12.11;30.21;100142.41;6217745;23;20091;-83
2021/04/09 06:30:06;;;;;;;4.53;3.28;;;;;;;11.97;30.61;100142.84;6243003;23;20058;-82
2021/04/09 06:32:32;;;;;;;5.47;3.40;;;;;;;11.81;30.65;100146.44;6216839;23;20003;-81
2021/04/09 06:34:57;;;;;;;3.33;2.67;;;;;;;11.71;31.38;100147.19;6243037;23;20032;-83
2021/04/09 06:37:23;;;;;;;4.28;2.75;;;;;;;11.51;31.12;100150.50;6242653;23;20418;-83
2021/04/09 06:39:49;;;;;;;2.95;2.53;;;;;;;11.48;31.43;100156.38;6242884;23;20087;-82
2021/04/09 06:42:18;;;;;;;4.03;2.65;;;;;;;11.37;32.13;100153.59;6242020;23;19996;-81
2021/04/09 06:44:48;;;;;;;10.15;6.70;;;;;;;11.25;31.62;100152.13;6217448;23;20007;-82
2021/04/09 06:47:14;;;;;;;3.75;2.78;;;;;;;11.21;32.19;100163.34;6242311;23;20004;-82
2021/04/09 06:49:42;;;;;;;6.35;3.17;;;;;;;11.16;32.33;100160.63;6217457;23;20007;-82
2021/04/09 06:52:12;;;;;;;5.47;2.33;;;;;;;11.11;32.97;100165.09;6242738;23;20003;-82
2021/04/09 06:54:40;;;;;;;4.95;2.75;;;;;;;11.16;32.36;100167.84;6217470;23;19996;-83
2021/04/09 06:57:07;;;;;;;2.63;2.28;;;;;;;11.18;32.89;100171.91;6242391;23;20000;-82
2021/04/09 06:59:33;;;;;;;6.18;2.83;;;;;;;11.20;32.39;100168.97;6217055;23;20000;-82
2021/04/09 07:02:01;;;;;;;6.20;2.47;;;;;;;11.23;32.69;100176.50;6217260;23;20011;-82
2021/04/09 07:04:27;;;;;;;2.83;2.20;;;;;;;11.30;32.59;100177.09;6242327;23;20102;-82
2021/04/09 07:06:53;;;;;;;3.55;2.47;;;;;;;11.33;31.87;100184.63;6242552;23;20003;-82
2021/04/09 07:09:18;;;;;;;4.43;3.05;;;;;;;11.33;31.57;100181.94;6242138;23;20000;-80
2021/04/09 07:11:53;;;;;;;2.33;2.13;;;;;;;11.26;32.23;100177.88;6217332;23;19999;-83
2021/04/09 07:14:19;;;;;;;5.22;2.05;;;;;;;11.26;31.82;100173.31;6216901;23;20007;-80
2021/04/09 07:16:59;;;;;;;3.90;2.17;;;;;;;11.19;30.88;100180.72;6242535;23;20004;-80
2021/04/09 07:19:32;;;;;;;1.58;1.48;;;;;;;11.12;31.69;100186.28;6216835;23;20429;-80
2021/04/09 07:22:03;;;;;;;3.92;2.20;;;;;;;11.12;31.36;100198.84;6242144;23;20008;-81
2021/04/09 07:24:29;;;;;;;2.13;1.92;;;;;;;11.11;31.40;100200.72;6216643;23;20040;-80
2021/04/09 07:26:55;;;;;;;5.78;2.38;;;;;;;11.14;31.96;100197.53;6217251;23;20087;-79
2021/04/09 07:29:30;;;;;;;4.88;2.20;;;;;;;11.18;31.42;100203.19;6216808;23;20010;-81
2021/04/09 07:31:59;;;;;;;4.78;2.58;;;;;;;11.23;31.77;100199.78;6216605;23;20444;-80
2021/04/09 07:34:25;;;;;;;5.57;1.95;;;;;;;11.18;31.87;100197.84;6242236;23;20490;-80
2021/04/09 07:36:57;;;;;;;3.03;2.45;;;;;;;11.19;32.94;100194.94;6216599;23;20003;-81
2021/04/09 07:39:35;;;;;;;3.05;2.13;;;;;;;11.05;31.86;100199.06;6216646;23;20099;-84
2021/04/09 07:42:09;;;;;;;2.65;1.90;;;;;;;11.04;33.07;100200.91;6216722;23;20409;-84
2021/04/09 07:44:36;;;;;;;2.90;2.15;;;;;;;11.00;31.80;100204.34;6216605;23;20015;-84
2021/04/09 07:47:14;;;;;;;4.32;2.47;;;;;;;10.91;31.72;100205.84;6216956;23;20004;-85
2021/04/09 07:49:40;;;;;;;6.85;2.70;;;;;;;10.79;34.15;100211.31;6216907;23;20000;-85
2021/04/09 07:52:12;;;;;;;3.75;3.13;;;;;;;10.80;34.60;100212.94;6216938;23;20054;-85
2021/04/09 07:54:39;;;;;;;3.67;2.67;;;;;;;10.69;33.76;100206.63;6216736;23;20003;-82
2021/04/09 07:57:05;;;;;;;4.63;2.42;;;;;;;10.71;33.67;100210.69;6242775;23;20022;-84
2021/04/09 07:59:43;;;;;;;7.25;2.22;;;;;;;10.66;34.14;100207.94;6241775;23;20007;-82
2021/04/09 08:02:09;;;;;;;3.72;1.98;;;;;;;10.61;33.22;100207.88;6242021;23;20000;-83
2021/04/09 08:04:39;;;;;;;4.78;2.63;;;;;;;10.64;34.15;100204.69;6216515;23;20012;-85
2021/04/09 08:07:05;;;;;;;3.80;2.28;;;;;;;10.68;33.88;100195.16;6216617;23;20035;-83
2021/04/09 08:09:47;;;;;;;3.15;2.08;;;;;;;10.71;34.09;100205.34;6241876;23;20004;-85
2021/04/09 08:12:33;;;;;;;3.45;2.60;;;;;;;10.71;33.90;100201.88;6216939;23;20310;-84
2021/04/09 08:15:34;;;;;;;2.33;1.80;;;;;;;10.77;32.99;100208.09;6242254;23;20032;-85
2021/04/09 08:18:09;;;;;;;4.88;2.05;;;;;;;10.81;34.09;100198.50;6178223;23;20402;-86
2021/04/09 08:20:37;;;;;;;5.78;2.20;;;;;;;10.81;33.91;100209.22;6216278;23;20007;-84
2021/04/09 08:23:12;;;;;;;4.60;2.72;;;;;;;10.78;34.77;100209.69;6242008;23;20003;-83
2021/04/09 08:25:40;;;;;;;6.78;2.58;;;;;;;10.66;33.25;100207.16;6215878;23;20016;-83
2021/04/09 08:28:10;;;;;;;3.88;2.75;;;;;;;10.60;33.43;100200.91;6216609;23;20004;-84
2021/04/09 08:30:37;;;;;;;2.05;1.67;;;;;;;10.61;34.80;100213.25;6241781;23;20004;-84
2021/04/09 08:33:04;;;;;;;4.50;2.30;;;;;;;10.63;35.26;100216.47;6216449;23;20057;-82
2021/04/09 08:35:30;;;;;;;3.83;2.35;;;;;;;10.63;33.83;100219.16;6241560;23;20306;-85
2021/04/09 08:37:58;;;;;;;4.63;2.30;;;;;;;10.66;33.99;100218.66;6216415;23;20079;-84
2021/04/09 08:40:24;;;;;;;;;;;;;;;10.60;33.79;100221.53;6216600;23;19997;-86
2021/04/09 08:42:54;;;;;;;3.65;2.20;;;;;;;10.64;34.29;100228.78;6217197;23;19911;-84
2021/04/09 08:45:21;;;;;;;16.35;4.38;;;;;;;10.63;34.53;100221.84;6241278;23;20008;-84
2021/04/09 08:47:52;;;;;;;3.63;2.20;;;;;;;10.62;33.67;100209.50;6216089;23;19996;-83
2021/04/09 08:50:18;;;;;;;2.20;1.60;;;;;;;10.52;32.80;100210.19;6216156;23;20058;-83
2021/04/09 08:52:46;;;;;;;5.82;2.38;;;;;;;10.51;33.14;100211.25;6216008;23;20004;-84
2021/04/09 08:55:14;;;;;;;2.83;1.80;;;;;;;10.40;32.87;100218.31;6241844;23;20082;-83
2021/04/09 08:57:42;;;;;;;2.78;1.75;;;;;;;10.36;35.03;100214.50;6216340;23;20035;-83
2021/04/09 09:00:11;;;;;;;3.28;2.38;;;;;;;10.41;33.53;100217.25;6216587;23;20063;-84
2021/04/09 09:02:55;;;;;;;;;;;;;;;10.37;34.09;100220.66;6216678;23;20007;-81
2021/04/09 09:05:33;;;;;;;3.47;2.28;;;;;;;10.39;34.78;100215.88;6243175;23;19978;-82
2021/04/09 09:08:03;;;;;;;2.95;1.88;;;;;;;10.45;34.54;100214.91;6217769;23;19995;-84
2021/04/09 09:10:29;;;;;;;2.63;1.58;;;;;;;10.54;32.52;100215.28;6243028;23;20053;-83
2021/04/09 09:13:04;;;;;;;2.72;1.92;;;;;;;10.50;32.04;100212.28;6243123;23;20070;-85
2021/04/09 09:15:42;;;;;;;2.33;1.88;;;;;;;10.56;33.86;100215.84;6243221;23;20004;-85
2021/04/09 09:18:22;;;;;;;2.85;1.45;;;;;;;10.66;32.83;100212.50;6243770;23;20004;-82
2021/04/09 09:21:11;;;;;;;3.00;1.92;;;;;;;10.71;33.14;100213.34;6243374;23;20004;-82
2021/04/09 09:23:56;;;;;;;;;;;;;;;10.69;32.67;100212.81;6243981;23;20038;-81
2021/04/09 09:26:29;;;;;;;3.80;1.45;;;;;;;10.76;32.04;100204.59;6242797;23;19977;-83
2021/04/09 09:29:16;;;;;;;7.00;1.90;;;;;;;10.74;32.11;100204.03;6219364;23;20405;-86
2021/04/09 09:31:53;;;;;;;2.97;2.10;;;;;;;10.70;31.51;100198.34;6232732;23;20026;-86
2021/04/09 09:34:23;;;;;;;3.03;1.63;;;;;;;10.77;32.71;100203.53;6257887;23;20062;-82
2021/04/09 09:37:13;;;;;;;5.90;1.90;;;;;;;10.74;31.44;100201.34;6252780;23;20000;-83
2021/04/09 09:40:01;;;;;;;2.75;1.50;;;;;;;10.76;30.87;100199.25;6249543;23;20063;-83
2021/04/09 09:42:26;;;;;;;2.97;1.80;;;;;;;10.83;31.69;100207.91;6246076;23;20080;-84
2021/04/09 09:44:59;;;;;;;2.13;1.40;;;;;;;10.76;30.02;100206.47;6245983;23;20373;-83
2021/04/09 09:47:27;;;;;;;2.38;1.55;;;;;;;10.79;28.51;100195.25;6243890;23;20004;-85
2021/04/09 09:50:04;;;;;;;2.70;1.25;;;;;;;10.75;28.66;100200.28;6244902;23;20483;-84
2021/04/09 09:53:05;;;;;;;2.42;1.48;;;;;;;10.81;29.26;100199.31;6243761;23;20012;-85
2021/04/09 09:55:45;;;;;;;3.47;1.73;;;;;;;10.78;30.43;100207.84;6218049;23;20023;-83
2021/04/09 09:58:12;;;;;;;1.55;1.45;;;;;;;10.64;28.45;100198.56;6243341;23;20035;-83
2021/04/09 10:01:19;;;;;;;1.60;1.50;;;;;;;10.57;30.09;100196.88;6242721;23;20004;-83
2021/04/09 10:03:45;;;;;;;3.85;1.55;;;;;;;10.59;31.19;100199.28;6241640;23;20008;-83
2021/04/09 10:06:13;;;;;;;2.28;1.48;;;;;;;10.57;30.43;100196.06;6217548;23;20051;-83
2021/04/09 10:08:40;;;;;;;1.33;1.23;;;;;;;10.50;30.83;100198.13;6242563;23;20023;-83
2021/04/09 10:11:14;;;;;;;4.63;1.50;;;;;;;10.40;32.47;100194.22;6242871;23;20071;-83
2021/04/09 10:13:40;;;;;;;1.75;1.42;;;;;;;10.48;32.29;100200.22;6217249;23;20064;-83
2021/04/09 10:16:09;;;;;;;1.70;1.60;;;;;;;10.55;30.15;100195.50;6217647;23;20011;-84
2021/04/09 10:18:36;;;;;;;1.30;1.20;;;;;;;10.63;32.63;100195.09;6242244;23;20000;-84
2021/04/09 10:21:32;;;;;;;3.25;1.50;;;;;;;10.71;29.71;100183.13;6217691;23;20035;-83
2021/04/09 10:24:07;;;;;;;1.35;1.25;;;;;;;10.78;30.67;100188.28;6240021;23;20054;-84
2021/04/09 10:26:34;;;;;;;2.65;1.55;;;;;;;10.80;31.23;100194.19;6216953;23;20023;-85
2021/04/09 10:28:59;;;;;;;1.55;1.30;;;;;;;10.87;31.71;100182.25;6242542;23;20004;-84
2021/04/09 10:31:25;;;;;;;1.77;1.33;;;;;;;10.73;30.50;100189.84;6242841;23;20058;-86
2021/04/09 10:33:53;;;;;;;2.17;2.00;;;;;;;10.68;29.74;100188.97;6242849;23;20000;-85
2021/04/09 10:36:30;;;;;;;1.60;1.48;;;;;;;10.62;29.43;100185.44;6217352;23;20452;-84
2021/04/09 10:39:00;;;;;;;2.40;1.40;;;;;;;10.52;29.69;100191.47;6217270;23;20000;-85
2021/04/09 10:41:37;;;;;;;1.27;1.17;;;;;;;10.57;32.01;100185.38;6242197;23;20023;-84
2021/04/09 10:44:05;;;;;;;1.50;1.10;;;;;;;10.60;29.01;100182.19;6217284;23;20340;-85
2021/04/09 10:46:37;;;;;;;1.55;1.45;;;;;;;10.58;28.15;100184.28;6217178;23;20494;-85
2021/04/09 10:49:04;;;;;;;0.90;0.90;;;;;;;10.44;29.03;100167.81;6217645;23;20004;-86
2021/04/09 10:51:45;;;;;;;1.17;1.02;;;;;;;10.53;28.20;100181.56;6217507;23;20452;-85
2021/04/09 10:54:17;;;;;;;3.47;1.17;;;;;;;10.61;30.18;100174.97;6192581;23;20509;-85
2021/04/09 10:57:03;;;;;;;1.20;1.10;;;;;;;10.78;31.03;100172.22;6216798;23;20000;-86
2021/04/09 10:59:32;;;;;;;2.58;1.17;;;;;;;10.96;31.61;100176.47;6217223;23;20348;-84
2021/04/09 11:01:58;;;;;;;;;;;;;;;11.11;30.45;100170.47;6243005;23;20000;-82
2021/04/09 11:04:25;;;;;;;2.83;1.33;;;;;;;11.24;29.52;100179.97;6217471;23;19962;-82
2021/04/09 11:06:53;;;;;;;0.93;0.93;;;;;;;11.38;31.73;100170.47;6217528;23;20322;-81
2021/04/09 11:09:19;;;;;;;1.92;1.70;;;;;;;11.43;28.79;100173.19;6242722;23;20471;-83
2021/04/09 11:11:44;;;;;;;1.50;1.10;;;;;;;11.32;28.45;100172.28;6217092;23;20011;-82
2021/04/09 11:14:16;;;;;;;2.55;1.33;;;;;;;11.28;28.88;100168.50;6217482;23;20012;-82
2021/04/09 11:16:54;;;;;;;1.75;1.20;;;;;;;11.25;29.10;100169.00;6242497;23;20399;-83
2021/04/09 11:19:32;;;;;;;3.10;1.60;;;;;;;11.22;29.22;100166.84;6217330;23;20370;-86
2021/04/09 11:21:59;;;;;;;3.28;1.33;;;;;;;11.23;30.20;100173.00;6217192;23;20048;-84
2021/04/09 11:24:34;;;;;;;1.45;1.08;;;;;;;11.23;30.83;100168.47;6216165;23;20019;-84
2021/04/09 11:27:21;;;;;;;2.67;1.33;;;;;;;11.27;30.00;100168.78;6217313;23;20417;-83
2021/04/09 11:29:48;;;;;;;1.30;1.20;;;;;;;11.27;30.09;100168.78;6242111;23;20027;-83
2021/04/09 11:32:20;;;;;;;1.30;0.98;;;;;;;11.18;30.14;100163.03;6242185;23;20011;-84
2021/04/09 11:34:50;;;;;;;1.85;1.40;;;;;;;11.22;29.83;100172.19;6242196;23;20007;-84
2021/04/09 11:37:17;;;;;;;1.58;1.23;;;;;;;11.15;29.83;100167.03;6216535;23;19996;-83
2021/04/09 11:39:49;;;;;;;2.53;1.40;;;;;;;11.14;29.42;100159.25;6216892;23;20416;-83
2021/04/09 11:42:32;;;;;;;1.45;1.25;;;;;;;11.24;30.56;100154.00;6216531;23;20004;-83
2021/04/09 11:45:10;;;;;;;1.90;1.50;;;;;;;11.33;30.70;100157.84;6242463;23;20011;-82
2021/04/09 11:47:40;;;;;;;3.28;1.67;;;;;;;11.42;30.08;100147.47;6216623;23;20004;-83
2021/04/09 11:50:09;;;;;;;2.33;1.45;;;;;;;11.51;29.82;100142.44;6217060;23;19996;-84
2021/04/09 11:52:49;;;;;;;;;;;;;;;11.62;30.16;100156.75;6242373;23;20023;-84
2021/04/09 11:55:16;;;;;;;1.75;1.20;;;;;;;11.71;30.47;100152.53;6242228;23;19900;-84
2021/04/09 11:57:41;;;;;;;3.60;1.60;;;;;;;11.79;30.22;100152.06;6216549;23;20575;-83
2021/04/09 12:00:18;;;;;;;3.92;1.73;;;;;;;11.87;31.02;100142.75;6242253;23;20035;-83
2021/04/09 12:03:10;;;;;;;1.63;1.25;;;;;;;11.83;28.47;100147.00;6241853;23;20373;-82